Time;durP1;ratioP1;P1;durP2;ratioP2;P2;SDS_P1;SDS_P2;PMS_P1;PMS_P2;Temp;Humidity;BMP_temperature;BMP_pressure;BME280_temperature;BME280_humidity;BME280_pressure;Samples;Min_cycle;Max_cycle;Signal;HPM_P1;HPM_P2
2020/12/06 00:01:01;;;;;;;;;;;;;;;;;;5039309;28;933;-50
2020/12/06 00:03:27;;;;;;;;;;;;;;;;;;5040753;28;893;-52
2020/12/06 00:05:53;;;;;;;;;;;;;;;;;;5040348;28;1271;-51
2020/12/06 00:08:18;;;;;;;;;;;;;;;;;;5040878;28;811;-50
2020/12/06 00:10:44;;;;;;;;;;;;;;;;;;5040227;28;913;-51
2020/12/06 00:13:10;;;;;;;;;;;;;;;;;;5040565;28;815;-51
2020/12/06 00:15:35;;;;;;;;;;;;;;;;;;5039859;28;1883;-51
2020/12/06 00:18:01;;;;;;;;;;;;;;;;;;5039887;28;906;-50
2020/12/06 00:20:27;;;;;;;;;;;;;;;;;;5040486;28;799;-50
2020/12/06 00:22:52;;;;;;;;;;;;;;;;;;5040151;28;1118;-51
2020/12/06 00:25:18;;;;;;;;;;;;;;;;;;5039928;28;880;-51
2020/12/06 00:27:43;;;;;;;;;;;;;;;;;;5039696;28;1254;-50
2020/12/06 00:30:09;;;;;;;;;;;;;;;;;;5040009;28;931;-51
2020/12/06 00:32:36;;;;;;;;;;;;;;;;;;5039596;28;816;-51
2020/12/06 00:35:01;;;;;;;;;;;;;;;;;;5040156;28;1863;-52
2020/12/06 00:37:27;;;;;;;;;;;;;;;;;;5039751;28;1333;-51
2020/12/06 00:39:53;;;;;;;;;;;;;;;;;;5039252;28;983;-53
2020/12/06 00:42:18;;;;;;;;;;;;;;;;;;5039594;28;803;-51
2020/12/06 00:44:44;;;;;;;;;;;;;;;;;;5039450;28;1410;-51
2020/12/06 00:47:10;;;;;;;;;;;;;;;;;;5039584;28;1282;-52
2020/12/06 00:49:35;;;;;;;;;;;;;;;;;;5039909;28;946;-50
2020/12/06 00:52:01;;;;;;;;;;;;;;;;;;5039686;28;813;-51
2020/12/06 00:54:27;;;;;;;;;;;;;;;;;;5039922;28;918;-50
2020/12/06 00:56:56;;;;;;;;;;;;;;;;;;5039880;28;1969;-51
2020/12/06 00:59:22;;;;;;;;;;;;;;;;;;5039716;28;906;-51
2020/12/06 01:01:47;;;;;;;;;;;;;;;;;;5039288;28;807;-52
2020/12/06 01:04:13;;;;;;;;;;;;;;;;;;5039126;28;943;-50
2020/12/06 01:06:39;;;;;;;;;;;;;;;;;;5039569;28;1235;-50
2020/12/06 01:09:04;;;;;;;;;;;;;;;;;;5039104;28;915;-49
2020/12/06 01:11:30;;;;;;;;;;;;;;;;;;5038938;28;554;-51
2020/12/06 01:13:56;;;;;;;;;;;;;;;;;;5039135;28;949;-50
2020/12/06 01:16:21;;;;;;;;;;;;;;;;;;5038965;28;1903;-50
2020/12/06 01:18:47;;;;;;;;;;;;;;;;;;5039584;28;835;-50
2020/12/06 01:21:13;;;;;;;;;;;;;;;;;;5039311;28;846;-51
2020/12/06 01:23:38;;;;;;;;;;;;;;;;;;5039394;28;951;-50
2020/12/06 01:26:04;;;;;;;;;;;;;;;;;;5038757;28;1251;-50
2020/12/06 01:28:30;;;;;;;;;;;;;;;;;;5039102;28;807;-51
2020/12/06 01:30:56;;;;;;;;;;;;;;;;;;5038440;28;811;-50
2020/12/06 01:33:21;;;;;;;;;;;;;;;;;;5038489;28;831;-51
2020/12/06 01:35:47;;;;;;;;;;;;;;;;;;5038768;28;1965;-50
2020/12/06 01:38:12;;;;;;;;;;;;;;;;;;5038976;28;787;-51
2020/12/06 01:40:39;;;;;;;;;;;;;;;;;;5038596;28;842;-49
2020/12/06 01:43:05;;;;;;;;;;;;;;;;;;5038799;28;783;-52
2020/12/06 01:45:30;;;;;;;;;;;;;;;;;;5037930;28;1418;-49
2020/12/06 01:47:56;;;;;;;;;;;;;;;;;;5038571;28;838;-50
2020/12/06 01:50:23;;;;;;;;;;;;;;;;;;5038113;28;894;-50
2020/12/06 01:52:49;;;;;;;;;;;;;;;;;;5038544;28;1039;-50
2020/12/06 01:55:14;;;;;;;;;;;;;;;;;;5038779;28;1875;-50
2020/12/06 01:57:40;;;;;;;;;;;;;;;;;;5038206;28;1434;-50
2020/12/06 02:00:06;;;;;;;;;;;;;;;;;;5038521;28;834;-49
2020/12/06 02:02:33;;;;;;;;;;;;;;;;;;5038839;28;807;-50
2020/12/06 02:04:58;;;;;;;;;;;;;;;;;;5037892;28;819;-51
2020/12/06 02:07:26;;;;;;;;;;;;;;;;;;5037477;28;1345;-50
2020/12/06 02:09:52;;;;;;;;;;;;;;;;;;5038075;28;966;-50
2020/12/06 02:12:17;;;;;;;;;;;;;;;;;;5038344;28;846;-51
2020/12/06 02:14:43;;;;;;;;;;;;;;;;;;5037552;28;1201;-50
2020/12/06 02:17:09;;;;;;;;;;;;;;;;;;5038142;28;1898;-51
2020/12/06 02:19:34;;;;;;;;;;;;;;;;;;5038376;28;807;-50
2020/12/06 02:22:00;;;;;;;;;;;;;;;;;;5038295;28;819;-49
2020/12/06 02:24:26;;;;;;;;;;;;;;;;;;5036422;28;885;-49
2020/12/06 02:26:52;;;;;;;;;;;;;;;;;;5037879;28;1275;-53
2020/12/06 02:29:18;;;;;;;;;;;;;;;;;;5037607;28;811;-51
2020/12/06 02:31:44;;;;;;;;;;;;;;;;;;5036588;28;845;-54
2020/12/06 02:34:10;;;;;;;;;;;;;;;;;;5036780;28;836;-56
2020/12/06 02:36:36;;;;;;;;;;;;;;;;;;5035939;28;1951;-53
2020/12/06 02:39:02;;;;;;;;;;;;;;;;;;5037108;28;818;-50
2020/12/06 02:41:44;;;;;;;;;;;;;;;;;;5037752;28;795;-50
2020/12/06 02:44:11;;;;;;;;;;;;;;;;;;5036702;28;811;-54
2020/12/06 02:46:37;;;;;;;;;;;;;;;;;;5036539;28;1302;-51
2020/12/06 02:49:04;;;;;;;;;;;;;;;;;;5038394;28;828;-51
2020/12/06 02:51:29;;;;;;;;;;;;;;;;;;5037840;28;1033;-50
2020/12/06 02:53:55;;;;;;;;;;;;;;;;;;5037745;28;951;-50
2020/12/06 02:56:21;;;;;;;;;;;;;;;;;;5037001;28;1893;-51
2020/12/06 02:58:46;;;;;;;;;;;;;;;;;;5037616;28;924;-52
2020/12/06 03:01:12;;;;;;;;;;;;;;;;;;5037167;28;887;-51
2020/12/06 03:03:38;;;;;;;;;;;;;;;;;;5037310;28;807;-55
2020/12/06 03:06:04;;;;;;;;;;;;;;;;;;5035089;28;1263;-56
2020/12/06 03:08:30;;;;;;;;;;;;;;;;;;5035039;28;823;-56
2020/12/06 03:10:56;;;;;;;;;;;;;;;;;;5035055;28;884;-54
2020/12/06 03:13:21;;;;;;;;;;;;;;;;;;5036068;28;789;-54
2020/12/06 03:15:47;;;;;;;;;;;;;;;;;;5035604;28;1902;-57
2020/12/06 03:18:13;;;;;;;;;;;;;;;;;;5035878;28;825;-52
2020/12/06 03:20:38;;;;;;;;;;;;;;;;;;5035728;28;895;-54
2020/12/06 03:23:04;;;;;;;;;;;;;;;;;;5035822;28;887;-53
2020/12/06 03:25:30;;;;;;;;;;;;;;;;;;5035819;28;1286;-55
2020/12/06 03:27:55;;;;;;;;;;;;;;;;;;5035783;28;821;-53
2020/12/06 03:30:21;;;;;;;;;;;;;;;;;;5036443;28;799;-56
2020/12/06 03:32:46;;;;;;;;;;;;;;;;;;5036301;28;942;-53
2020/12/06 03:35:12;;;;;;;;;;;;;;;;;;5035812;28;780;-53
2020/12/06 03:37:38;;;;;;;;;;;;;;;;;;5034423;28;1886;-53
2020/12/06 03:40:03;;;;;;;;;;;;;;;;;;5035552;28;823;-55
2020/12/06 03:42:29;;;;;;;;;;;;;;;;;;5035733;28;925;-53
2020/12/06 03:44:55;;;;;;;;;;;;;;;;;;5035359;28;831;-57
2020/12/06 03:47:21;;;;;;;;;;;;;;;;;;5036054;28;1259;-54
2020/12/06 03:49:46;;;;;;;;;;;;;;;;;;5035708;28;818;-53
2020/12/06 03:52:12;;;;;;;;;;;;;;;;;;5035545;28;887;-55
2020/12/06 03:54:38;;;;;;;;;;;;;;;;;;5034940;28;835;-53
2020/12/06 03:57:03;;;;;;;;;;;;;;;;;;5035901;28;1890;-50
2020/12/06 03:59:29;;;;;;;;;;;;;;;;;;5037180;28;887;-50
2020/12/06 04:01:55;;;;;;;;;;;;;;;;;;5037243;28;887;-50
2020/12/06 04:04:21;;;;;;;;;;;;;;;;;;5037049;28;912;-49
2020/12/06 04:06:46;;;;;;;;;;;;;;;;;;5036559;28;1262;-51
2020/12/06 04:09:12;;;;;;;;;;;;;;;;;;5037056;28;921;-51
2020/12/06 04:11:38;;;;;;;;;;;;;;;;;;5037558;28;578;-50
2020/12/06 04:14:03;;;;;;;;;;;;;;;;;;5040367;28;953;-49
2020/12/06 04:16:29;;;;;;;;;;;;;;;;;;5040304;28;1898;-49
2020/12/06 04:18:55;;;;;;;;;;;;;;;;;;5040496;28;941;-50
2020/12/06 04:21:20;;;;;;;;;;;;;;;;;;5039975;28;906;-50
2020/12/06 04:23:46;;;;;;;;;;;;;;;;;;5040035;28;928;-51
2020/12/06 04:26:12;;;;;;;;;;;;;;;;;;5039636;28;1254;-54
2020/12/06 04:28:37;;;;;;;;;;;;;;;;;;5038611;28;961;-53
2020/12/06 04:31:03;;;;;;;;;;;;;;;;;;5038329;28;985;-53
2020/12/06 04:33:29;;;;;;;;;;;;;;;;;;5038931;28;963;-53
2020/12/06 04:35:54;;;;;;;;;;;;;;;;;;5038306;28;1973;-54
2020/12/06 04:38:20;;;;;;;;;;;;;;;;;;5038442;28;814;-55
2020/12/06 04:40:45;;;;;;;;;;;;;;;;;;5038947;28;798;-52
2020/12/06 04:43:12;;;;;;;;;;;;;;;;;;5038316;28;803;-53
2020/12/06 04:45:38;;;;;;;;;;;;;;;;;;5038501;28;1349;-53
2020/12/06 04:48:05;;;;;;;;;;;;;;;;;;5038444;28;815;-53
2020/12/06 04:50:35;;;;;;;;;;;;;;;;;;5038358;28;1338;-53
2020/12/06 04:53:02;;;;;;;;;;;;;;;;;;5039293;28;886;-50
2020/12/06 04:55:29;;;;;;;;;;;;;;;;;;5038327;28;1364;-52
2020/12/06 04:57:56;;;;;;;;;;;;;;;;;;5038098;28;1871;-55
2020/12/06 05:00:27;;;;;;;;;;;;;;;;;;5038089;28;787;-55
2020/12/06 05:02:53;;;;;;;;;;;;;;;;;;5038380;28;587;-50
2020/12/06 05:05:20;;;;;;;;;;;;;;;;;;5039260;28;832;-51
2020/12/06 05:07:45;;;;;;;;;;;;;;;;;;5039231;28;1227;-50
2020/12/06 05:10:11;;;;;;;;;;;;;;;;;;5039695;28;950;-50
2020/12/06 05:12:37;;;;;;;;;;;;;;;;;;5039851;28;805;-50
2020/12/06 05:15:02;;;;;;;;;;;;;;;;;;5038644;28;874;-54
2020/12/06 05:17:28;;;;;;;;;;;;;;;;;;5038339;28;1875;-50
2020/12/06 05:19:54;;;;;;;;;;;;;;;;;;5039240;28;799;-50
2020/12/06 05:22:24;;;;;;;;;;;;;;;;;;5039399;28;747;-50
2020/12/06 05:24:50;;;;;;;;;;;;;;;;;;5037896;28;521;-53
2020/12/06 05:27:16;;;;;;;;;;;;;;;;;;5038226;28;1266;-50
2020/12/06 05:29:42;;;;;;;;;;;;;;;;;;5039165;28;791;-50
2020/12/06 05:32:09;;;;;;;;;;;;;;;;;;5038529;28;899;-51
2020/12/06 05:34:34;;;;;;;;;;;;;;;;;;5038956;28;981;-51
2020/12/06 05:37:07;;;;;;;;;;;;;;;;;;5038380;28;1902;-50
2020/12/06 05:39:32;;;;;;;;;;;;;;;;;;5039105;28;1090;-54
2020/12/06 05:41:58;;;;;;;;;;;;;;;;;;5037441;28;1067;-53
2020/12/06 05:44:24;;;;;;;;;;;;;;;;;;5036950;28;821;-56
2020/12/06 05:46:50;;;;;;;;;;;;;;;;;;5037571;28;1401;-55
2020/12/06 05:49:19;;;;;;;;;;;;;;;;;;5037102;28;893;-52
2020/12/06 05:51:54;;;;;;;;;;;;;;;;;;5036630;28;904;-53
2020/12/06 05:54:24;;;;;;;;;;;;;;;;;;5038864;28;807;-50
2020/12/06 05:56:50;;;;;;;;;;;;;;;;;;5038239;28;1902;-50
2020/12/06 05:59:17;;;;;;;;;;;;;;;;;;5037738;28;901;-53
2020/12/06 06:01:43;;;;;;;;;;;;;;;;;;5036644;28;907;-53
2020/12/06 06:04:09;;;;;;;;;;;;;;;;;;5036936;28;974;-50
2020/12/06 06:06:34;;;;;;;;;;;;;;;;;;5037081;28;1264;-53
2020/12/06 06:09:01;;;;;;;;;;;;;;;;;;5036424;28;975;-56
2020/12/06 06:11:27;;;;;;;;;;;;;;;;;;5036553;28;559;-57
2020/12/06 06:14:00;;;;;;;;;;;;;;;;;;5036175;28;1152;-56
2020/12/06 06:16:27;;;;;;;;;;;;;;;;;;5035334;28;1910;-53
2020/12/06 06:18:53;;;;;;;;;;;;;;;;;;5035759;28;875;-53
2020/12/06 06:21:22;;;;;;;;;;;;;;;;;;5036952;28;959;-53
2020/12/06 06:23:48;;;;;;;;;;;;;;;;;;5036634;28;895;-53
2020/12/06 06:26:15;;;;;;;;;;;;;;;;;;5036897;28;1250;-53
2020/12/06 06:28:41;;;;;;;;;;;;;;;;;;5036611;28;807;-54
2020/12/06 06:31:08;;;;;;;;;;;;;;;;;;5036391;28;752;-53
2020/12/06 06:33:34;;;;;;;;;;;;;;;;;;5036916;28;884;-53
2020/12/06 06:36:00;;;;;;;;;;;;;;;;;;5035495;28;1898;-56
2020/12/06 06:38:26;;;;;;;;;;;;;;;;;;5035739;28;863;-57
2020/12/06 06:40:53;;;;;;;;;;;;;;;;;;5035886;28;829;-57
2020/12/06 06:43:19;;;;;;;;;;;;;;;;;;5035776;28;868;-55
2020/12/06 06:45:45;;;;;;;;;;;;;;;;;;5035175;28;1384;-56
2020/12/06 06:48:17;;;;;;;;;;;;;;;;;;5035766;28;811;-55
2020/12/06 06:50:46;;;;;;;;;;;;;;;;;;5035958;28;811;-54
2020/12/06 06:53:14;;;;;;;;;;;;;;;;;;5036493;28;799;-54
2020/12/06 06:55:53;;;;;;;;;;;;;;;;;;5035549;28;1362;-56
2020/12/06 06:58:22;;;;;;;;;;;;;;;;;;5036179;28;1966;-55
2020/12/06 07:00:48;;;;;;;;;;;;;;;;;;5036328;28;811;-54
2020/12/06 07:03:14;;;;;;;;;;;;;;;;;;5036240;28;795;-53
2020/12/06 07:05:39;;;;;;;;;;;;;;;;;;5035613;28;1235;-56
2020/12/06 07:08:09;;;;;;;;;;;;;;;;;;5035926;28;923;-53
2020/12/06 07:10:36;;;;;;;;;;;;;;;;;;5035398;28;803;-56
2020/12/06 07:13:04;;;;;;;;;;;;;;;;;;5035308;28;827;-53
2020/12/06 07:15:30;;;;;;;;;;;;;;;;;;5034812;28;1302;-55
2020/12/06 07:17:56;;;;;;;;;;;;;;;;;;5035341;28;1955;-53
2020/12/06 07:20:23;;;;;;;;;;;;;;;;;;5034984;28;1004;-53
2020/12/06 07:22:49;;;;;;;;;;;;;;;;;;5035800;28;863;-56
2020/12/06 07:25:15;;;;;;;;;;;;;;;;;;5035601;28;700;-53
2020/12/06 07:27:41;;;;;;;;;;;;;;;;;;5035899;28;1259;-53
2020/12/06 07:30:08;;;;;;;;;;;;;;;;;;5036105;28;838;-52
2020/12/06 07:32:34;;;;;;;;;;;;;;;;;;5035885;28;944;-54
2020/12/06 07:35:00;;;;;;;;;;;;;;;;;;5036846;28;863;-50
2020/12/06 07:37:26;;;;;;;;;;;;;;;;;;5036840;28;1961;-49
2020/12/06 07:39:51;;;;;;;;;;;;;;;;;;5036999;28;914;-50
2020/12/06 07:42:21;;;;;;;;;;;;;;;;;;5037597;28;776;-50
2020/12/06 07:44:48;;;;;;;;;;;;;;;;;;5035211;28;814;-55
2020/12/06 07:47:14;;;;;;;;;;;;;;;;;;5037607;28;1262;-51
2020/12/06 07:49:49;;;;;;;;;;;;;;;;;;5041121;28;904;-51
2020/12/06 07:52:16;;;;;;;;;;;;;;;;;;5038577;28;817;-54
2020/12/06 07:55:05;;;;;;;;;;;;;;;;;;5038322;28;886;-57
2020/12/06 07:57:39;;;;;;;;;;;;;;;;;;5032944;28;1894;-56
2020/12/06 08:00:17;;;;;;;;;;;;;;;;;;5038845;28;866;-55
2020/12/06 08:02:45;;;;;;;;;;;;;;;;;;5038367;28;966;-57
2020/12/06 08:05:13;;;;;;;;;;;;;;;;;;5038199;28;912;-55
2020/12/06 08:07:42;;;;;;;;;;;;;;;;;;5038860;28;1369;-53
2020/12/06 08:10:13;;;;;;;;;;;;;;;;;;5039262;28;942;-51
2020/12/06 08:12:40;;;;;;;;;;;;;;;;;;5040487;28;834;-51
2020/12/06 08:15:06;;;;;;;;;;;;;;;;;;5040070;28;974;-50
2020/12/06 08:17:48;;;;;;;;;;;;;;;;;;5039919;28;1906;-51
2020/12/06 08:20:15;;;;;;;;;;;;;;;;;;5038537;28;791;-57
2020/12/06 08:22:50;;;;;;;;;;;;;;;;;;5037847;28;806;-61
2020/12/06 08:25:19;;;;;;;;;;;;;;;;;;5038353;28;1124;-65
2020/12/06 08:27:45;;;;;;;;;;;;;;;;;;5038373;28;1267;-52
2020/12/06 08:30:16;;;;;;;;;;;;;;;;;;5039566;28;790;-52
2020/12/06 08:32:49;;;;;;;;;;;;;;;;;;5039046;28;907;-52
2020/12/06 08:35:14;;;;;;;;;;;;;;;;;;5038450;28;574;-51
2020/12/06 08:37:40;;;;;;;;;;;;;;;;;;5038428;28;1906;-54
2020/12/06 08:40:06;;;;;;;;;;;;;;;;;;5039221;28;865;-51
2020/12/06 08:42:31;;;;;;;;;;;;;;;;;;5038716;28;965;-53
2020/12/06 08:45:00;;;;;;;;;;;;;;;;;;5038439;28;1051;-49
2020/12/06 08:47:42;;;;;;;;;;;;;;;;;;5040003;28;1555;-50
2020/12/06 08:50:09;;;;;;;;;;;;;;;;;;5038510;28;1064;-51
2020/12/06 08:52:35;;;;;;;;;;;;;;;;;;5038460;28;982;-52
2020/12/06 08:55:01;;;;;;;;;;;;;;;;;;5037625;28;950;-56
2020/12/06 08:57:27;;;;;;;;;;;;;;;;;;5039409;28;1975;-50
2020/12/06 08:59:53;;;;;;;;;;;;;;;;;;5039619;28;799;-48
2020/12/06 09:02:25;;;;;;;;;;;;;;;;;;5039366;28;946;-49
2020/12/06 09:04:51;;;;;;;;;;;;;;;;;;5038406;28;791;-51
2020/12/06 09:07:17;;;;;;;;;;;;;;;;;;5039358;28;1349;-50
2020/12/06 09:09:43;;;;;;;;;;;;;;;;;;5040106;28;950;-49
2020/12/06 09:12:09;;;;;;;;;;;;;;;;;;5039391;28;804;-50
2020/12/06 09:14:34;;;;;;;;;;;;;;;;;;5039760;28;883;-49
2020/12/06 09:17:00;;;;;;;;;;;;;;;;;;5038938;28;1879;-49
2020/12/06 09:19:26;;;;;;;;;;;;;;;;;;5039459;28;822;-49
2020/12/06 09:21:51;;;;;;;;;;;;;;;;;;5038568;28;819;-49
2020/12/06 09:24:17;;;;;;;;;;;;;;;;;;5039591;28;815;-49
2020/12/06 09:26:43;;;;;;;;;;;;;;;;;;5038163;28;1258;-49
2020/12/06 09:29:08;;;;;;;;;;;;;;;;;;5039447;28;811;-49
2020/12/06 09:31:35;;;;;;;;;;;;;;;;;;5039119;28;807;-49
2020/12/06 09:34:01;;;;;;;;;;;;;;;;;;5039149;28;938;-50
2020/12/06 09:36:27;;;;;;;;;;;;;;;;;;5038642;28;1337;-51
2020/12/06 09:38:52;;;;;;;;;;;;;;;;;;5039420;28;1957;-48
2020/12/06 09:41:18;;;;;;;;;;;;;;;;;;5038527;28;895;-49
2020/12/06 09:43:45;;;;;;;;;;;;;;;;;;5038403;28;864;-50
2020/12/06 09:46:11;;;;;;;;;;;;;;;;;;5038648;28;1334;-49
2020/12/06 09:48:37;;;;;;;;;;;;;;;;;;5038980;28;807;-50
2020/12/06 09:51:04;;;;;;;;;;;;;;;;;;5038805;28;799;-49
2020/12/06 09:53:29;;;;;;;;;;;;;;;;;;5038354;28;1096;-49
2020/12/06 09:55:55;;;;;;;;;;;;;;;;;;5038387;28;1265;-49
2020/12/06 09:58:20;;;;;;;;;;;;;;;;;;5038373;28;1953;-50
2020/12/06 10:00:46;;;;;;;;;;;;;;;;;;5036820;28;833;-49
2020/12/06 10:03:12;;;;;;;;;;;;;;;;;;5039054;28;807;-48
2020/12/06 10:05:37;;;;;;;;;;;;;;;;;;5038087;28;1774;-49
2020/12/06 10:08:03;;;;;;;;;;;;;;;;;;5039402;28;804;-51
2020/12/06 10:10:29;;;;;;;;;;;;;;;;;;5037094;28;905;-51
2020/12/06 10:12:54;;;;;;;;;;;;;;;;;;5037999;28;820;-54
2020/12/06 10:15:20;;;;;;;;;;;;;;;;;;5037310;28;893;-54
2020/12/06 10:17:46;;;;;;;;;;;;;;;;;;5037493;28;1879;-56
2020/12/06 10:20:11;;;;;;;;;;;;;;;;;;5036979;28;787;-58
2020/12/06 10:22:37;;;;;;;;;;;;;;;;;;5037701;28;1111;-54
2020/12/06 10:25:03;;;;;;;;;;;;;;;;;;5036984;28;819;-58
2020/12/06 10:27:29;;;;;;;;;;;;;;;;;;5036445;28;1388;-58
2020/12/06 10:29:54;;;;;;;;;;;;;;;;;;5036481;28;936;-56
2020/12/06 10:32:20;;;;;;;;;;;;;;;;;;5037024;28;803;-56
2020/12/06 10:34:46;;;;;;;;;;;;;;;;;;5037316;28;890;-54
2020/12/06 10:37:11;;;;;;;;;;;;;;;;;;5037286;28;1898;-55
2020/12/06 10:39:37;;;;;;;;;;;;;;;;;;5036733;28;917;-62
2020/12/06 10:42:03;;;;;;;;;;;;;;;;;;5036635;28;1046;-55
2020/12/06 10:44:28;;;;;;;;;;;;;;;;;;5036262;28;1034;-57
2020/12/06 10:46:54;;;;;;;;;;;;;;;;;;5036776;28;1365;-56
2020/12/06 10:49:20;;;;;;;;;;;;;;;;;;5036796;28;927;-58
2020/12/06 10:51:47;;;;;;;;;;;;;;;;;;5036805;28;1154;-58
2020/12/06 10:54:14;;;;;;;;;;;;;;;;;;5036807;28;1010;-58
2020/12/06 10:56:40;;;;;;;;;;;;;;;;;;5036151;28;1371;-56
2020/12/06 10:59:06;;;;;;;;;;;;;;;;;;5036884;28;2357;-56
2020/12/06 11:01:32;;;;;;;;;;;;;;;;;;5036717;28;1010;-57
2020/12/06 11:03:58;;;;;;;;;;;;;;;;;;5036459;28;1114;-59
2020/12/06 11:06:24;;;;;;;;;;;;;;;;;;5036740;28;1343;-57
2020/12/06 11:08:50;;;;;;;;;;;;;;;;;;5037181;28;831;-59
2020/12/06 11:11:16;;;;;;;;;;;;;;;;;;5036795;28;828;-56
2020/12/06 11:13:42;;;;;;;;;;;;;;;;;;5036615;28;831;-58
2020/12/06 11:16:08;;;;;;;;;;;;;;;;;;5036346;28;1282;-57
2020/12/06 11:18:34;;;;;;;;;;;;;;;;;;5035834;28;1957;-59
2020/12/06 11:20:59;;;;;;;;;;;;;;;;;;5037092;28;890;-62
2020/12/06 11:23:25;;;;;;;;;;;;;;;;;;5041292;28;811;-58
2020/12/06 11:25:51;;;;;;;;;;;;;;;;;;5039721;28;1289;-57
2020/12/06 11:28:17;;;;;;;;;;;;;;;;;;5040114;28;798;-59
2020/12/06 11:30:43;;;;;;;;;;;;;;;;;;5039663;28;787;-58
2020/12/06 11:33:10;;;;;;;;;;;;;;;;;;5042257;28;993;-56
2020/12/06 11:35:36;;;;;;;;;;;;;;;;;;5039917;28;1277;-59
2020/12/06 11:38:01;;;;;;;;;;;;;;;;;;5040139;28;1971;-56
2020/12/06 11:40:27;;;;;;;;;;;;;;;;;;5040170;28;898;-57
2020/12/06 11:42:53;;;;;;;;;;;;;;;;;;5040626;28;795;-59
2020/12/06 11:45:18;;;;;;;;;;;;;;;;;;5040101;28;819;-57
2020/12/06 11:47:44;;;;;;;;;;;;;;;;;;5039562;28;1286;-59
2020/12/06 11:50:10;;;;;;;;;;;;;;;;;;5040125;28;996;-55
2020/12/06 11:52:35;;;;;;;;;;;;;;;;;;5040193;28;870;-54
2020/12/06 11:55:01;;;;;;;;;;;;;;;;;;5040782;28;877;-56
2020/12/06 11:57:26;;;;;;;;;;;;;;;;;;5040562;28;1898;-54
2020/12/06 11:59:52;;;;;;;;;;;;;;;;;;5040473;28;884;-56
2020/12/06 12:02:18;;;;;;;;;;;;;;;;;;5040605;28;907;-56
2020/12/06 12:04:43;;;;;;;;;;;;;;;;;;5040209;28;845;-54
2020/12/06 12:07:09;;;;;;;;;;;;;;;;;;5040560;28;1250;-56
2020/12/06 12:09:35;;;;;;;;;;;;;;;;;;5040402;28;942;-55
2020/12/06 12:12:01;;;;;;;;;;;;;;;;;;5040009;28;954;-57
2020/12/06 12:14:26;;;;;;;;;;;;;;;;;;5038657;28;934;-55
2020/12/06 12:16:52;;;;;;;;;;;;;;;;;;5039743;28;1352;-57
2020/12/06 12:19:18;;;;;;;;;;;;;;;;;;5039762;28;1898;-55
2020/12/06 12:21:43;;;;;;;;;;;;;;;;;;5040194;28;912;-55
2020/12/06 12:24:09;;;;;;;;;;;;;;;;;;5040024;28;871;-55
2020/12/06 12:26:35;;;;;;;;;;;;;;;;;;5038889;28;1279;-56
2020/12/06 12:29:00;;;;;;;;;;;;;;;;;;5039194;28;901;-54
2020/12/06 12:31:27;;;;;;;;;;;;;;;;;;5040319;28;950;-55
2020/12/06 12:33:53;;;;;;;;;;;;;;;;;;5039024;28;998;-52
2020/12/06 12:36:19;;;;;;;;;;;;;;;;;;5039471;28;1317;-52
2020/12/06 12:38:44;;;;;;;;;;;;;;;;;;5040180;28;1898;-53
2020/12/06 12:41:10;;;;;;;;;;;;;;;;;;5040504;28;950;-53
2020/12/06 12:43:36;;;;;;;;;;;;;;;;;;5039827;28;783;-55
2020/12/06 12:46:01;;;;;;;;;;;;;;;;;;5039527;28;1286;-54
2020/12/06 12:48:27;;;;;;;;;;;;;;;;;;5039992;28;988;-52
2020/12/06 12:50:53;;;;;;;;;;;;;;;;;;5040710;28;795;-53
2020/12/06 12:53:19;;;;;;;;;;;;;;;;;;5039613;28;842;-53
2020/12/06 12:55:44;;;;;;;;;;;;;;;;;;5039915;28;1263;-53
2020/12/06 12:58:10;;;;;;;;;;;;;;;;;;5040177;28;1955;-54
2020/12/06 13:00:35;;;;;;;;;;;;;;;;;;5038703;28;792;-59
2020/12/06 13:03:01;;;;;;;;;;;;;;;;;;5039024;28;876;-62
2020/12/06 13:05:27;;;;;;;;;;;;;;;;;;5038668;28;1270;-60
2020/12/06 13:07:53;;;;;;;;;;;;;;;;;;5039448;28;923;-57
2020/12/06 13:10:19;;;;;;;;;;;;;;;;;;5039641;28;815;-56
2020/12/06 13:12:47;;;;;;;;;;;;;;;;;;5039629;28;891;-53
2020/12/06 13:15:13;;;;;;;;;;;;;;;;;;5039552;28;905;-56
2020/12/06 13:17:39;;;;;;;;;;;;;;;;;;5040139;28;1876;-53
2020/12/06 13:20:04;;;;;;;;;;;;;;;;;;5039291;28;906;-53
2020/12/06 13:22:30;;;;;;;;;;;;;;;;;;5039701;28;911;-54
2020/12/06 13:24:56;;;;;;;;;;;;;;;;;;5039634;28;1039;-54
2020/12/06 13:27:22;;;;;;;;;;;;;;;;;;5039862;28;1298;-52
2020/12/06 13:29:48;;;;;;;;;;;;;;;;;;5039494;28;907;-53
2020/12/06 13:32:15;;;;;;;;;;;;;;;;;;5039013;28;803;-52
2020/12/06 13:34:40;;;;;;;;;;;;;;;;;;5038119;28;878;-51
2020/12/06 13:37:06;;;;;;;;;;;;;;;;;;5039566;28;1242;-55
2020/12/06 13:39:32;;;;;;;;;;;;;;;;;;5039263;28;1886;-54
2020/12/06 13:41:58;;;;;;;;;;;;;;;;;;5039028;28;976;-53
2020/12/06 13:44:24;;;;;;;;;;;;;;;;;;5038351;28;827;-55
2020/12/06 13:46:50;;;;;;;;;;;;;;;;;;5038277;28;1263;-53
2020/12/06 13:49:15;;;;;;;;;;;;;;;;;;5038661;28;887;-56
2020/12/06 13:51:41;;;;;;;;;;;;;;;;;;5038292;28;807;-54
2020/12/06 13:54:06;;;;;;;;;;;;;;;;;;5038751;28;704;-53
2020/12/06 13:56:32;;;;;;;;;;;;;;;;;;5038232;28;1341;-56
2020/12/06 13:58:58;;;;;;;;;;;;;;;;;;5038903;28;1890;-54
2020/12/06 14:01:23;;;;;;;;;;;;;;;;;;5038526;28;975;-54
2020/12/06 14:03:49;;;;;;;;;;;;;;;;;;5038712;28;835;-53
2020/12/06 14:06:15;;;;;;;;;;;;;;;;;;5038727;28;1275;-54
2020/12/06 14:08:41;;;;;;;;;;;;;;;;;;5038876;28;816;-54
2020/12/06 14:11:07;;;;;;;;;;;;;;;;;;5039106;28;812;-56
2020/12/06 14:13:32;;;;;;;;;;;;;;;;;;5038352;28;811;-55
2020/12/06 14:15:58;;;;;;;;;;;;;;;;;;5038162;28;1267;-54
2020/12/06 14:18:24;;;;;;;;;;;;;;;;;;5038026;28;1967;-53
2020/12/06 14:20:50;;;;;;;;;;;;;;;;;;5038155;28;791;-56
2020/12/06 14:23:15;;;;;;;;;;;;;;;;;;5038237;28;1045;-53
2020/12/06 14:25:41;;;;;;;;;;;;;;;;;;5037643;28;1283;-53
2020/12/06 14:28:07;;;;;;;;;;;;;;;;;;5038234;28;1040;-53
2020/12/06 14:30:32;;;;;;;;;;;;;;;;;;5038078;28;877;-55
2020/12/06 14:32:58;;;;;;;;;;;;;;;;;;5037697;28;924;-55
2020/12/06 14:35:23;;;;;;;;;;;;;;;;;;5037928;28;994;-52
2020/12/06 14:37:49;;;;;;;;;;;;;;;;;;5037101;28;1902;-53
2020/12/06 14:40:15;;;;;;;;;;;;;;;;;;5037950;28;815;-55
2020/12/06 14:42:40;;;;;;;;;;;;;;;;;;5037679;28;823;-51
2020/12/06 14:45:06;;;;;;;;;;;;;;;;;;5038139;28;826;-52
2020/12/06 14:47:32;;;;;;;;;;;;;;;;;;5038268;28;1640;-53
2020/12/06 14:49:57;;;;;;;;;;;;;;;;;;5038086;28;1425;-54
2020/12/06 14:52:23;;;;;;;;;;;;;;;;;;5037428;28;1102;-53
2020/12/06 14:54:49;;;;;;;;;;;;;;;;;;5036233;28;797;-51
2020/12/06 14:57:14;;;;;;;;;;;;;;;;;;5037477;28;1271;-51
2020/12/06 14:59:40;;;;;;;;;;;;;;;;;;5036600;28;1893;-53
2020/12/06 15:02:06;;;;;;;;;;;;;;;;;;5037509;28;966;-52
2020/12/06 15:04:32;;;;;;;;;;;;;;;;;;5038196;28;811;-48
2020/12/06 15:06:57;;;;;;;;;;;;;;;;;;5037975;28;1271;-49
2020/12/06 15:09:23;;;;;;;;;;;;;;;;;;5038411;28;950;-50
2020/12/06 15:11:49;;;;;;;;;;;;;;;;;;5037710;28;815;-49
2020/12/06 15:14:15;;;;;;;;;;;;;;;;;;5038626;28;788;-57
2020/12/06 15:16:40;;;;;;;;;;;;;;;;;;5036799;28;1275;-48
2020/12/06 15:19:06;;;;;;;;;;;;;;;;;;5038701;28;1898;-49
2020/12/06 15:21:32;;;;;;;;;;;;;;;;;;5038099;28;867;-49
2020/12/06 15:23:58;;;;;;;;;;;;;;;;;;5037701;28;881;-49
2020/12/06 15:26:24;;;;;;;;;;;;;;;;;;5036010;28;1392;-50
2020/12/06 15:28:50;;;;;;;;;;;;;;;;;;5038280;28;894;-50
2020/12/06 15:31:15;;;;;;;;;;;;;;;;;;5038409;28;996;-49
2020/12/06 15:33:43;;;;;;;;;;;;;;;;;;5038569;28;803;-50
2020/12/06 15:36:12;;;;;;;;;;;;;;;;;;5037774;28;1334;-49
2020/12/06 15:38:38;;;;;;;;;;;;;;;;;;5037571;28;1902;-49
2020/12/06 15:41:14;;;;;;;;;;;;;;;;;;5038201;28;745;-48
2020/12/06 15:43:40;;;;;;;;;;;;;;;;;;5037704;28;744;-48
2020/12/06 15:46:06;;;;;;;;;;;;;;;;;;5037979;28;1270;-48
2020/12/06 15:48:33;;;;;;;;;;;;;;;;;;5038063;28;883;-50
2020/12/06 15:51:01;;;;;;;;;;;;;;;;;;5037630;28;926;-49
2020/12/06 15:53:26;;;;;;;;;;;;;;;;;;5037815;28;1164;-49
2020/12/06 15:55:52;;;;;;;;;;;;;;;;;;5037228;28;1369;-50
2020/12/06 15:58:18;;;;;;;;;;;;;;;;;;5037816;28;1965;-50
2020/12/06 16:00:43;;;;;;;;;;;;;;;;;;5038159;28;823;-50
2020/12/06 16:03:09;;;;;;;;;;;;;;;;;;5037760;28;787;-49
2020/12/06 16:05:35;;;;;;;;;;;;;;;;;;5037440;28;1357;-49
2020/12/06 16:08:01;;;;;;;;;;;;;;;;;;5038400;28;875;-50
2020/12/06 16:10:30;;;;;;;;;;;;;;;;;;5040979;28;856;-51
2020/12/06 16:12:56;;;;;;;;;;;;;;;;;;5041653;28;804;-50
2020/12/06 16:15:22;;;;;;;;;;;;;;;;;;5041137;28;881;-50
2020/12/06 16:17:47;;;;;;;;;;;;;;;;;;5040837;28;1433;-56
2020/12/06 16:20:13;;;;;;;;;;;;;;;;;;5040106;28;1956;-53
2020/12/06 16:22:39;;;;;;;;;;;;;;;;;;5040970;28;935;-51
2020/12/06 16:25:04;;;;;;;;;;;;;;;;;;5040307;28;848;-50
2020/12/06 16:27:30;;;;;;;;;;;;;;;;;;5040968;28;1258;-49
2020/12/06 16:29:56;;;;;;;;;;;;;;;;;;5040443;28;877;-49
2020/12/06 16:32:21;;;;;;;;;;;;;;;;;;5040132;28;819;-51
2020/12/06 16:34:47;;;;;;;;;;;;;;;;;;5040726;28;880;-50
2020/12/06 16:37:13;;;;;;;;;;;;;;;;;;5040599;28;1270;-49
2020/12/06 16:39:38;;;;;;;;;;;;;;;;;;5041046;28;1957;-50
2020/12/06 16:42:04;;;;;;;;;;;;;;;;;;5040386;28;819;-53
2020/12/06 16:44:30;;;;;;;;;;;;;;;;;;5040204;28;802;-50
2020/12/06 16:46:56;;;;;;;;;;;;;;;;;;5040510;28;1322;-49
2020/12/06 16:49:23;;;;;;;;;;;;;;;;;;5040489;28;857;-50
2020/12/06 16:51:49;;;;;;;;;;;;;;;;;;5040520;28;1077;-49
2020/12/06 16:54:14;;;;;;;;;;;;;;;;;;5040682;28;880;-52
2020/12/06 16:56:40;;;;;;;;;;;;;;;;;;5040208;28;1345;-49
2020/12/06 16:59:06;;;;;;;;;;;;;;;;;;5038568;28;1895;-49
2020/12/06 17:01:31;;;;;;;;;;;;;;;;;;5038887;28;819;-54
2020/12/06 17:03:57;;;;;;;;;;;;;;;;;;5039059;28;878;-52
2020/12/06 17:06:23;;;;;;;;;;;;;;;;;;5038687;28;1247;-52
2020/12/06 17:08:48;;;;;;;;;;;;;;;;;;5038626;28;961;-53